createdAt,value
2019-01-16T00:02:14.611Z,2.14
2019-01-16T00:05:23.709Z,2.08
2019-01-16T00:08:32.552Z,2.13
2019-01-16T00:11:37.759Z,2.01
2019-01-16T00:14:45.967Z,1.98
2019-01-16T00:17:46.721Z,1.99
2019-01-16T00:20:52.383Z,1.93
2019-01-16T00:24:01.763Z,1.99
2019-01-16T00:27:29.041Z,1.99
2019-01-16T00:30:37.590Z,2.01
2019-01-16T00:33:54.454Z,1.96
2019-01-16T00:37:12.894Z,1.92
2019-01-16T00:40:31.636Z,1.86
2019-01-16T00:43:48.028Z,1.89
2019-01-16T00:47:09.475Z,1.94
2019-01-16T00:50:17.283Z,1.92
2019-01-16T00:53:17.367Z,1.87
2019-01-16T00:56:23.070Z,1.82
2019-01-16T00:59:31.122Z,1.80
2019-01-16T01:02:33.810Z,1.86
2019-01-16T01:05:46.362Z,1.84
2019-01-16T01:08:55.468Z,1.89
2019-01-16T01:12:20.226Z,1.99
2019-01-16T01:15:29.518Z,2.01
2019-01-16T01:18:45.199Z,2.03
2019-01-16T01:21:57.386Z,1.96
2019-01-16T01:25:19.144Z,1.95
2019-01-16T01:28:18.423Z,2.01
2019-01-16T01:31:32.507Z,2.09
2019-01-16T01:34:40.995Z,2.11
2019-01-16T01:37:53.131Z,2.10
2019-01-16T01:41:01.416Z,2.03
2019-01-16T01:44:09.386Z,2.07
2019-01-16T01:47:11.676Z,2.08
2019-01-16T01:50:24.404Z,2.04
2019-01-16T01:53:33.642Z,2.01
2019-01-16T01:56:41.679Z,1.98
2019-01-16T02:00:00.247Z,2.00
2019-01-16T02:03:15.207Z,2.06
2019-01-16T02:06:27.261Z,2.03
2019-01-16T02:09:35.863Z,2.04
2019-01-16T02:12:43.904Z,2.05
2019-01-16T02:15:52.441Z,2.09
2019-01-16T02:18:58.745Z,2.03
2019-01-16T02:22:06.910Z,2.08
2019-01-16T02:25:19.757Z,2.08
2019-01-16T02:28:37.857Z,2.05
2019-01-16T02:31:50.121Z,2.08
2019-01-16T02:35:18.572Z,2.11
2019-01-16T02:38:18.765Z,2.11
2019-01-16T02:41:36.482Z,2.06
2019-01-16T02:44:54.449Z,2.26
2019-01-16T02:48:22.758Z,2.29
2019-01-16T02:51:31.024Z,2.34
2019-01-16T02:54:55.513Z,2.31
2019-01-16T02:57:53.844Z,2.38
2019-01-16T03:01:01.443Z,2.45
2019-01-16T03:04:20.087Z,2.43
2019-01-16T03:07:32.616Z,2.36
2019-01-16T03:10:50.312Z,2.37
2019-01-16T03:13:57.318Z,2.40
2019-01-16T03:17:12.803Z,2.37
2019-01-16T03:20:29.054Z,2.34
2019-01-16T03:23:42.585Z,2.36
2019-01-16T03:26:54.965Z,2.48
2019-01-16T03:30:13.069Z,2.61
2019-01-16T03:33:21.923Z,2.71
2019-01-16T03:36:31.616Z,2.69
2019-01-16T03:39:47.100Z,2.70
2019-01-16T03:42:55.277Z,2.69
2019-01-16T03:46:13.414Z,2.72
2019-01-16T03:49:33.466Z,2.72
2019-01-16T03:52:43.435Z,2.70
2019-01-16T03:56:05.735Z,2.71
2019-01-16T03:59:14.220Z,2.75
2019-01-16T04:02:22.504Z,2.76
2019-01-16T04:05:24.385Z,2.83
2019-01-16T04:08:46.105Z,2.79
2019-01-16T04:11:57.992Z,2.80
2019-01-16T04:15:05.838Z,2.81
2019-01-16T04:18:14.029Z,2.83
2019-01-16T04:21:32.458Z,2.83
2019-01-16T04:24:48.167Z,2.79
2019-01-16T04:28:09.594Z,2.77
2019-01-16T04:31:25.198Z,2.85
2019-01-16T04:34:33.455Z,2.89
2019-01-16T04:37:49.992Z,2.79
2019-01-16T04:40:57.191Z,2.79
2019-01-16T04:44:16.259Z,2.83
2019-01-16T04:47:24.435Z,2.72
2019-01-16T04:50:37.332Z,2.77
2019-01-16T04:53:46.363Z,2.84
2019-01-16T04:57:05.182Z,2.71
2019-01-16T05:00:17.610Z,2.87
2019-01-16T05:03:26.055Z,2.90
2019-01-16T05:06:44.589Z,2.79
2019-01-16T05:10:05.942Z,2.70
2019-01-16T05:13:33.442Z,2.74
2019-01-16T05:16:42.610Z,2.72
2019-01-16T05:19:45.734Z,2.88
2019-01-16T05:22:49.044Z,2.75
2019-01-16T05:26:07.876Z,2.75
2019-01-16T05:29:20.937Z,2.79
2019-01-16T05:32:24.163Z,2.72
2019-01-16T05:35:42.954Z,2.79
2019-01-16T05:38:50.918Z,2.90
2019-01-16T05:41:59.385Z,3.04
2019-01-16T05:45:09.778Z,3.08
2019-01-16T05:48:11.482Z,3.23
2019-01-16T05:51:29.608Z,3.24
2019-01-16T05:54:39.039Z,3.27
2019-01-16T05:57:50.739Z,3.28
2019-01-16T06:01:12.448Z,3.35
2019-01-16T06:04:21.651Z,3.39
2019-01-16T06:07:49.151Z,3.47
2019-01-16T06:11:07.561Z,3.69
2019-01-16T06:14:11.968Z,3.85
2019-01-16T06:17:15.699Z,4.03
2019-01-16T06:20:36.294Z,4.10
2019-01-16T06:23:45.730Z,4.46
2019-01-16T06:26:54.364Z,4.62
2019-01-16T06:30:06.635Z,4.98
2019-01-16T06:33:16.082Z,5.36
2019-01-16T06:36:22.078Z,5.82
2019-01-16T06:39:43.792Z,6.62
2019-01-16T06:42:58.534Z,7.44
2019-01-16T06:46:11.436Z,8.75
2019-01-16T06:49:23.682Z,9.30
2019-01-16T06:52:31.855Z,9.88
2019-01-16T06:55:51.231Z,10.24
2019-01-16T06:58:59.514Z,10.21
2019-01-16T07:02:06.154Z,10.35
2019-01-16T07:05:10.818Z,10.89
2019-01-16T07:08:26.012Z,11.55
2019-01-16T07:11:27.171Z,11.49
2019-01-16T07:14:42.357Z,11.70
2019-01-16T07:17:57.757Z,12.37
2019-01-16T07:21:05.766Z,12.99
2019-01-16T07:24:24.185Z,12.82
2019-01-16T07:27:39.843Z,12.24
2019-01-16T07:31:01.792Z,12.30
2019-01-16T07:34:13.086Z,12.74
2019-01-16T07:37:25.708Z,12.27
2019-01-16T07:40:34.876Z,13.92
2019-01-16T07:43:43.022Z,14.65
2019-01-16T07:46:55.615Z,14.70
2019-01-16T07:50:17.605Z,15.99
2019-01-16T07:53:33.124Z,16.59
2019-01-16T07:56:41.472Z,16.57
2019-01-16T07:59:57.015Z,16.14
2019-01-16T08:03:06.259Z,16.96
2019-01-16T08:06:13.860Z,16.45
2019-01-16T08:09:24.245Z,16.59
2019-01-16T08:12:39.664Z,16.47
2019-01-16T08:15:45.007Z,17.63
2019-01-16T08:18:44.046Z,16.97
2019-01-16T08:21:52.424Z,17.32
2019-01-16T08:25:05.339Z,17.76
2019-01-16T08:28:19.455Z,18.71
2019-01-16T08:31:47.233Z,18.56
2019-01-16T08:34:57.818Z,17.46
2019-01-16T08:38:05.523Z,17.43
2019-01-16T08:41:14.630Z,17.43
2019-01-16T08:44:16.340Z,16.23
2019-01-16T08:47:41.063Z,16.78
2019-01-16T08:51:05.190Z,15.72
2019-01-16T08:54:13.470Z,14.67
2019-01-16T08:57:21.619Z,13.35
2019-01-16T09:00:39.005Z,13.18
2019-01-16T09:03:48.228Z,13.13
2019-01-16T09:06:56.826Z,12.64
2019-01-16T09:10:09.118Z,12.31
2019-01-16T09:13:25.124Z,12.01
2019-01-16T09:16:27.421Z,11.75
2019-01-16T09:19:36.912Z,11.80
2019-01-16T09:22:52.182Z,12.09
2019-01-16T09:25:59.716Z,12.68
2019-01-16T09:29:24.832Z,12.70
2019-01-16T09:32:36.950Z,13.04
2019-01-16T09:36:04.567Z,12.92
2019-01-16T09:39:12.981Z,12.28
2019-01-16T09:42:26.185Z,11.66
2019-01-16T09:45:42.811Z,11.36
2019-01-16T09:48:52.523Z,11.48
2019-01-16T09:52:11.364Z,11.44
2019-01-16T09:55:34.214Z,11.06
2019-01-16T09:58:45.342Z,10.93
2019-01-16T10:02:04.569Z,10.98
2019-01-16T10:05:14.889Z,10.87
2019-01-16T10:08:22.725Z,10.95
2019-01-16T10:11:44.845Z,10.63
2019-01-16T10:14:55.092Z,10.52
2019-01-16T10:18:01.392Z,10.49
2019-01-16T10:21:13.924Z,10.62
2019-01-16T10:24:23.099Z,10.58
2019-01-16T10:27:32.644Z,10.37
2019-01-16T10:30:52.122Z,10.38
2019-01-16T10:34:07.781Z,10.25
2019-01-16T10:37:17.133Z,10.15
2019-01-16T10:40:26.320Z,10.22
2019-01-16T10:43:48.339Z,10.01
2019-01-16T10:46:57.995Z,9.99
2019-01-16T10:50:07.357Z,9.98
2019-01-16T10:53:15.621Z,9.99
2019-01-16T10:56:37.736Z,10.05
2019-01-16T10:59:41.703Z,10.01
2019-01-16T11:02:57.100Z,10.04
2019-01-16T11:06:09.354Z,9.96
2019-01-16T11:09:31.368Z,10.07
2019-01-16T11:12:39.089Z,9.87
2019-01-16T11:15:47.027Z,10.02
2019-01-16T11:19:14.568Z,9.98
2019-01-16T11:22:19.151Z,10.08
2019-01-16T11:25:30.812Z,10.10
2019-01-16T11:28:46.746Z,10.19
2019-01-16T11:32:04.505Z,10.18
2019-01-16T11:35:26.464Z,10.27
2019-01-16T11:38:35.872Z,10.11
2019-01-16T11:42:03.262Z,10.00
2019-01-16T11:45:30.585Z,10.18
2019-01-16T11:48:45.911Z,10.14
2019-01-16T11:51:58.087Z,10.20
2019-01-16T11:55:07.491Z,10.20
2019-01-16T11:58:21.344Z,10.22
2019-01-16T12:01:24.812Z,10.25
2019-01-16T12:04:28.309Z,10.19
2019-01-16T12:07:40.713Z,10.26
2019-01-16T12:10:59.387Z,10.27
2019-01-16T12:14:07.293Z,10.30
2019-01-16T12:17:32.943Z,10.35
2019-01-16T12:20:43.783Z,10.40
2019-01-16T12:23:59.756Z,10.40
2019-01-16T12:27:07.856Z,10.43
2019-01-16T12:30:35.652Z,10.46
2019-01-16T12:33:43.876Z,10.50
2019-01-16T12:36:51.761Z,10.44
2019-01-16T12:39:58.478Z,10.50
2019-01-16T12:43:05.726Z,10.56
2019-01-16T12:46:07.539Z,10.45
2019-01-16T12:49:16.277Z,10.49
2019-01-16T12:52:31.439Z,10.46
2019-01-16T12:55:32.973Z,10.52
2019-01-16T12:58:45.347Z,10.56
2019-01-16T13:02:00.622Z,10.57
2019-01-16T13:05:09.165Z,10.62
2019-01-16T13:08:27.485Z,10.51
2019-01-16T13:11:35.811Z,10.46
2019-01-16T13:14:48.262Z,10.49
2019-01-16T13:18:15.907Z,10.49
2019-01-16T13:21:19.204Z,10.43
2019-01-16T13:24:27.720Z,10.48
2019-01-16T13:27:37.280Z,10.50
2019-01-16T13:30:55.026Z,10.54
2019-01-16T13:34:07.213Z,10.47
2019-01-16T13:37:22.528Z,10.58
2019-01-16T13:40:40.963Z,10.48
2019-01-16T13:43:48.459Z,10.55
2019-01-16T13:46:55.123Z,10.42
2019-01-16T13:50:00.808Z,10.27
2019-01-16T13:53:22.716Z,10.36
2019-01-16T13:56:30.448Z,10.38
2019-01-16T13:59:58.123Z,10.27
2019-01-16T14:03:23.508Z,10.28
2019-01-16T14:06:44.848Z,10.21
2019-01-16T14:09:53.014Z,10.24
2019-01-16T14:13:11.507Z,10.20
2019-01-16T14:16:24.496Z,10.24
2019-01-16T14:19:39.877Z,10.22
2019-01-16T14:22:44.502Z,10.10
2019-01-16T14:26:05.913Z,9.93
2019-01-16T14:29:13.692Z,9.94
2019-01-16T14:32:21.729Z,9.82
2019-01-16T14:35:36.783Z,9.75
2019-01-16T14:38:55.290Z,9.73
2019-01-16T14:42:03.593Z,9.77
2019-01-16T14:45:03.747Z,9.70
2019-01-16T14:48:25.299Z,9.60
2019-01-16T14:51:31.782Z,9.73
2019-01-16T14:54:41.206Z,9.67
2019-01-16T14:57:52.407Z,9.69
2019-01-16T15:01:01.243Z,9.70
2019-01-16T15:04:09.294Z,9.76
2019-01-16T15:07:18.486Z,9.69
2019-01-16T15:10:24.663Z,9.75
2019-01-16T15:13:32.454Z,9.73
2019-01-16T15:16:44.367Z,9.63
2019-01-16T15:20:08.951Z,9.70
2019-01-16T15:23:27.086Z,9.70
2019-01-16T15:26:39.496Z,9.53
2019-01-16T15:29:51.755Z,9.36
2019-01-16T15:33:11.996Z,9.19
2019-01-16T15:36:36.616Z,9.06
2019-01-16T15:39:49.199Z,8.94
2019-01-16T15:43:07.289Z,8.90
2019-01-16T15:46:14.937Z,8.98
2019-01-16T15:49:25.877Z,8.99
2019-01-16T15:52:47.722Z,8.94
2019-01-16T15:55:59.686Z,8.93
2019-01-16T15:59:23.739Z,8.93
2019-01-16T16:02:32.858Z,8.98
2019-01-16T16:05:50.119Z,8.98
2019-01-16T16:09:00.029Z,8.98
2019-01-16T16:12:07.551Z,8.97
2019-01-16T16:15:22.827Z,9.05
2019-01-16T16:18:30.904Z,8.95
2019-01-16T16:21:40.036Z,8.94
2019-01-16T16:25:01.101Z,8.96
2019-01-16T16:28:09.206Z,8.91
2019-01-16T16:31:18.258Z,8.89
2019-01-16T16:34:33.578Z,8.72
2019-01-16T16:37:45.861Z,8.76
2019-01-16T16:41:10.649Z,8.75
2019-01-16T16:44:18.950Z,8.72
2019-01-16T16:47:25.643Z,8.78
2019-01-16T16:50:25.831Z,8.83
2019-01-16T16:53:34.299Z,8.79
2019-01-16T16:56:47.149Z,8.92
2019-01-16T17:00:02.727Z,8.94
2019-01-16T17:03:29.087Z,9.09
2019-01-16T17:06:47.680Z,8.97
2019-01-16T17:10:00.785Z,8.93
2019-01-16T17:13:28.445Z,9.02
2019-01-16T17:16:43.400Z,9.05
2019-01-16T17:20:05.085Z,9.05
2019-01-16T17:23:14.680Z,8.98
2019-01-16T17:26:22.763Z,9.02
2019-01-16T17:29:48.071Z,9.01
2019-01-16T17:32:52.382Z,8.98
2019-01-16T17:36:05.012Z,8.91
2019-01-16T17:39:24.176Z,8.87
2019-01-16T17:42:25.558Z,8.98
2019-01-16T17:45:38.016Z,9.01
2019-01-16T17:48:46.400Z,9.03
2019-01-16T17:51:57.307Z,8.95
2019-01-16T17:55:12.362Z,8.96
2019-01-16T17:58:24.611Z,8.94
2019-01-16T18:01:32.039Z,8.97
2019-01-16T18:04:34.865Z,8.95
2019-01-16T18:07:46.557Z,8.71
2019-01-16T18:10:52.397Z,8.86
2019-01-16T18:13:58.369Z,8.93
2019-01-16T18:17:10.967Z,8.77
2019-01-16T18:20:35.658Z,8.73
2019-01-16T18:23:43.964Z,8.75
2019-01-16T18:26:55.635Z,8.60
2019-01-16T18:30:03.961Z,8.53
2019-01-16T18:33:12.011Z,8.70
2019-01-16T18:36:18.866Z,8.69
2019-01-16T18:39:24.236Z,8.62
2019-01-16T18:42:52.033Z,8.66
2019-01-16T18:46:01.214Z,8.83
2019-01-16T18:48:59.942Z,8.76
2019-01-16T18:52:14.765Z,8.78
2019-01-16T18:55:27.663Z,8.78
2019-01-16T18:58:43.284Z,8.82
2019-01-16T19:01:57.955Z,8.85
2019-01-16T19:05:00.652Z,8.78
2019-01-16T19:08:13.037Z,8.80
2019-01-16T19:11:38.750Z,8.82
2019-01-16T19:14:52.298Z,8.73
2019-01-16T19:18:02.499Z,8.70
2019-01-16T19:21:06.532Z,8.67
2019-01-16T19:24:15.682Z,8.61
2019-01-16T19:27:15.127Z,8.67
2019-01-16T19:30:36.059Z,8.62
2019-01-16T19:33:50.884Z,8.60
2019-01-16T19:37:00.302Z,8.55
2019-01-16T19:40:04.752Z,8.55
2019-01-16T19:43:17.027Z,8.60
2019-01-16T19:46:35.043Z,8.62
2019-01-16T19:49:43.420Z,8.69
2019-01-16T19:52:51.007Z,8.80
2019-01-16T19:56:03.737Z,8.91
2019-01-16T19:59:25.120Z,8.83
2019-01-16T20:02:40.205Z,8.76
2019-01-16T20:05:55.522Z,8.77
2019-01-16T20:09:04.834Z,8.70
2019-01-16T20:12:13.359Z,8.83
2019-01-16T20:15:21.346Z,8.81
2019-01-16T20:18:29.282Z,8.83
2019-01-16T20:21:38.782Z,8.83
2019-01-16T20:24:48.781Z,8.79
2019-01-16T20:28:07.181Z,8.76
2019-01-16T20:31:12.164Z,8.85
2019-01-16T20:34:21.603Z,8.82
2019-01-16T20:37:30.011Z,8.67
2019-01-16T20:40:43.054Z,8.66
2019-01-16T20:44:01.586Z,8.66
2019-01-16T20:47:11.524Z,8.66
2019-01-16T20:50:27.744Z,8.83
2019-01-16T20:53:27.870Z,8.81
2019-01-16T20:56:35.845Z,8.77
2019-01-16T20:59:45.392Z,8.76
2019-01-16T21:02:47.612Z,8.90
2019-01-16T21:06:02.232Z,8.90
2019-01-16T21:09:11.794Z,8.82
2019-01-16T21:12:19.985Z,8.76
2019-01-16T21:15:28.981Z,8.78
2019-01-16T21:18:37.167Z,8.49
2019-01-16T21:22:06.364Z,8.59
2019-01-16T21:25:31.323Z,8.55
2019-01-16T21:28:39.556Z,8.61
2019-01-16T21:31:46.599Z,8.58
2019-01-16T21:34:45.547Z,8.64
2019-01-16T21:37:55.121Z,8.56
2019-01-16T21:41:04.256Z,8.47
2019-01-16T21:44:11.948Z,8.48
2019-01-16T21:47:37.455Z,8.43
2019-01-16T21:50:53.365Z,8.43
2019-01-16T21:54:05.619Z,8.42
2019-01-16T21:57:18.139Z,8.43
2019-01-16T22:00:39.475Z,8.58
2019-01-16T22:03:44.409Z,8.68
2019-01-16T22:07:06.149Z,8.64
2019-01-16T22:10:14.149Z,8.82
2019-01-16T22:13:29.619Z,8.68
2019-01-16T22:16:42.409Z,8.67
2019-01-16T22:19:55.137Z,8.58
2019-01-16T22:23:10.419Z,8.55
2019-01-16T22:26:17.860Z,8.59
2019-01-16T22:29:33.472Z,8.53
2019-01-16T22:32:54.942Z,8.50
2019-01-16T22:36:04.397Z,8.52
2019-01-16T22:39:04.456Z,8.44
2019-01-16T22:42:15.773Z,8.39
2019-01-16T22:45:27.052Z,8.38
2019-01-16T22:48:32.650Z,8.51
2019-01-16T22:51:48.234Z,8.53
2019-01-16T22:54:56.663Z,8.62
2019-01-16T22:58:05.658Z,8.60
2019-01-16T23:01:13.668Z,8.55
2019-01-16T23:04:35.218Z,8.43
2019-01-16T23:07:33.894Z,8.49
2019-01-16T23:10:52.544Z,8.51
2019-01-16T23:13:54.324Z,8.46
2019-01-16T23:17:03.127Z,8.57
2019-01-16T23:20:27.667Z,8.60
2019-01-16T23:23:49.742Z,8.60
2019-01-16T23:27:05.821Z,8.52
2019-01-16T23:30:21.168Z,8.57
2019-01-16T23:33:27.332Z,8.63
2019-01-16T23:36:54.804Z,8.68
2019-01-16T23:40:03.541Z,8.76
2019-01-16T23:43:16.280Z,8.81
2019-01-16T23:46:37.816Z,8.76
2019-01-16T23:50:05.307Z,8.72
2019-01-16T23:53:19.576Z,8.64
2019-01-16T23:56:27.116Z,8.61
2019-01-16T23:59:38.249Z,8.69
